createdAt,value
2022-09-16T00:02:10.682Z,3.55
2022-09-16T00:04:15.611Z,4.07
2022-09-16T00:06:26.262Z,3.80
2022-09-16T00:08:28.366Z,4.60
2022-09-16T00:10:30.053Z,4.40
2022-09-16T00:12:32.244Z,3.67
2022-09-16T00:14:35.060Z,4.50
2022-09-16T00:16:40.050Z,4.50
2022-09-16T00:18:41.843Z,4.43
2022-09-16T00:20:53.491Z,4.97
2022-09-16T00:22:55.380Z,4.63
2022-09-16T00:24:57.094Z,5.22
2022-09-16T00:26:59.020Z,4.10
2022-09-16T00:29:00.739Z,4.57
2022-09-16T00:31:03.886Z,4.85
2022-09-16T00:33:06.039Z,4.28
2022-09-16T00:35:08.207Z,4.60
2022-09-16T00:37:09.898Z,4.45
2022-09-16T00:39:11.743Z,4.50
2022-09-16T00:41:17.683Z,4.63
2022-09-16T00:43:20.282Z,4.65
2022-09-16T00:45:26.690Z,4.35
2022-09-16T00:47:33.301Z,4.57
2022-09-16T00:49:35.042Z,4.72
2022-09-16T00:51:38.361Z,4.00
2022-09-16T00:53:45.862Z,4.47
2022-09-16T00:55:49.462Z,4.72
2022-09-16T00:57:53.845Z,4.70
2022-09-16T00:59:57.406Z,4.00
2022-09-16T01:02:03.305Z,4.60
2022-09-16T01:04:15.538Z,4.10
2022-09-16T01:06:19.057Z,4.30
2022-09-16T01:08:20.736Z,3.92
2022-09-16T01:10:26.220Z,4.32
2022-09-16T01:12:29.953Z,4.07
2022-09-16T01:16:43.594Z,4.57
2022-09-16T01:18:53.913Z,4.20
2022-09-16T01:21:09.694Z,3.95
2022-09-16T01:23:29.983Z,3.50
2022-09-16T01:26:05.779Z,3.75
2022-09-16T01:28:48.809Z,3.58
2022-09-16T01:31:19.938Z,3.15
2022-09-16T01:33:47.913Z,3.63
2022-09-16T01:36:12.989Z,3.33
2022-09-16T01:38:46.877Z,3.20
2022-09-16T01:41:09.018Z,3.40
2022-09-16T01:43:36.614Z,2.92
2022-09-16T01:45:44.087Z,3.55
2022-09-16T01:47:52.044Z,3.42
2022-09-16T01:50:22.909Z,3.10
2022-09-16T01:52:45.898Z,3.83
2022-09-16T01:54:51.756Z,3.95
2022-09-16T01:57:04.342Z,4.95
2022-09-16T01:59:15.374Z,4.43
2022-09-16T02:01:24.951Z,4.30
2022-09-16T02:03:32.349Z,3.65
2022-09-16T02:05:51.109Z,3.80
2022-09-16T02:07:59.739Z,3.40
2022-09-16T02:10:10.779Z,3.45
2022-09-16T02:12:21.684Z,3.20
2022-09-16T02:14:29.080Z,3.22
2022-09-16T02:16:43.197Z,2.72
2022-09-16T02:21:15.589Z,3.33
2022-09-16T02:23:24.839Z,3.45
2022-09-16T02:25:30.285Z,3.25
2022-09-16T02:27:32.616Z,3.45
2022-09-16T02:29:48.867Z,3.40
2022-09-16T02:31:56.081Z,2.90
2022-09-16T02:34:03.238Z,3.40
2022-09-16T02:36:07.082Z,3.10
2022-09-16T02:38:21.747Z,3.38
2022-09-16T02:40:29.077Z,3.20
2022-09-16T02:42:31.668Z,3.00
2022-09-16T02:44:34.142Z,3.72
2022-09-16T02:46:54.044Z,3.47
2022-09-16T02:49:14.658Z,3.35
2022-09-16T02:51:42.319Z,3.50
2022-09-16T02:53:50.754Z,3.58
2022-09-16T02:56:03.913Z,3.58
2022-09-16T02:58:07.342Z,3.40
2022-09-16T03:00:09.727Z,3.72
2022-09-16T03:02:11.844Z,3.55
2022-09-16T03:04:16.581Z,3.22
2022-09-16T03:06:23.894Z,3.60
2022-09-16T03:08:25.824Z,4.00
2022-09-16T03:10:35.028Z,3.35
2022-09-16T03:13:07.507Z,3.60
2022-09-16T03:15:37.250Z,3.10
2022-09-16T03:17:57.910Z,3.00
2022-09-16T03:20:21.089Z,3.20
2022-09-16T03:22:48.889Z,2.90
2022-09-16T03:25:06.630Z,2.90
2022-09-16T03:27:14.132Z,2.70
2022-09-16T03:29:24.661Z,3.08
2022-09-16T03:31:58.032Z,2.90
2022-09-16T03:34:11.483Z,2.75
2022-09-16T03:36:19.459Z,3.90
2022-09-16T03:38:21.529Z,3.25
2022-09-16T03:40:25.451Z,3.35
2022-09-16T03:42:27.477Z,3.30
2022-09-16T03:44:38.253Z,3.25
2022-09-16T03:46:40.003Z,3.13
2022-09-16T03:48:42.069Z,3.08
2022-09-16T03:50:43.773Z,2.95
2022-09-16T03:52:45.529Z,3.58
2022-09-16T03:54:47.449Z,3.25
2022-09-16T03:56:49.172Z,3.20
2022-09-16T03:58:50.994Z,3.53
2022-09-16T04:00:52.849Z,3.25
2022-09-16T04:03:00.447Z,2.90
2022-09-16T04:05:02.257Z,3.28
2022-09-16T04:07:04.176Z,2.78
2022-09-16T04:09:06.548Z,3.10
2022-09-16T04:11:08.229Z,3.00
2022-09-16T04:13:10.190Z,3.28
2022-09-16T04:15:12.294Z,3.00
2022-09-16T04:17:13.967Z,3.00
2022-09-16T04:19:15.820Z,3.15
2022-09-16T04:21:18.299Z,3.00
2022-09-16T04:23:20.038Z,3.08
2022-09-16T04:25:22.112Z,3.28
2022-09-16T04:27:24.252Z,3.17
2022-09-16T04:29:25.984Z,2.83
2022-09-16T04:31:28.913Z,2.85
2022-09-16T04:33:32.991Z,3.22
2022-09-16T04:35:34.757Z,3.17
2022-09-16T04:37:36.751Z,2.58
2022-09-16T04:39:38.498Z,3.05
2022-09-16T04:41:40.212Z,2.78
2022-09-16T04:43:42.652Z,2.88
2022-09-16T04:45:44.368Z,2.55
2022-09-16T04:47:46.081Z,2.85
2022-09-16T04:49:47.884Z,3.03
2022-09-16T04:51:49.577Z,2.78
2022-09-16T04:53:51.289Z,3.00
2022-09-16T04:55:53.270Z,3.03
2022-09-16T04:57:54.945Z,2.80
2022-09-16T04:59:56.663Z,3.38
2022-09-16T05:01:58.492Z,2.80
2022-09-16T05:04:03.995Z,2.88
2022-09-16T05:06:19.754Z,3.10
2022-09-16T05:08:22.486Z,3.22
2022-09-16T05:10:24.478Z,2.40
2022-09-16T05:12:26.187Z,2.85
2022-09-16T05:14:27.955Z,2.97
2022-09-16T05:16:30.131Z,2.55
2022-09-16T05:18:32.206Z,2.70
2022-09-16T05:20:33.966Z,2.90
2022-09-16T05:22:35.758Z,2.90
2022-09-16T05:24:37.496Z,2.15
2022-09-16T05:26:41.982Z,2.10
2022-09-16T05:28:44.038Z,2.10
2022-09-16T05:30:45.765Z,1.80
2022-09-16T05:32:47.597Z,1.85
2022-09-16T05:34:49.876Z,2.00
2022-09-16T05:36:51.591Z,2.03
2022-09-16T05:39:18.369Z,1.65
2022-09-16T05:41:15.207Z,1.88
2022-09-16T05:43:16.930Z,1.58
2022-09-16T05:45:24.138Z,1.92
2022-09-16T05:47:27.550Z,1.58
2022-09-16T05:49:29.243Z,1.85
2022-09-16T05:51:31.063Z,1.70
2022-09-16T05:53:34.549Z,1.80
2022-09-16T05:55:36.222Z,1.50
2022-09-16T05:57:38.107Z,1.40
2022-09-16T05:59:40.046Z,1.30
2022-09-16T06:01:42.052Z,1.65
2022-09-16T06:03:46.073Z,1.40
2022-09-16T06:05:47.925Z,1.38
2022-09-16T06:07:49.606Z,1.50
2022-09-16T06:09:51.748Z,1.30
2022-09-16T06:11:59.396Z,1.42
2022-09-16T06:14:03.325Z,1.48
2022-09-16T06:16:06.963Z,1.30
2022-09-16T06:20:10.580Z,1.30
2022-09-16T06:22:12.627Z,1.17
2022-09-16T06:24:16.570Z,1.20
2022-09-16T06:26:21.000Z,1.40
2022-09-16T06:28:22.974Z,1.50
2022-09-16T06:30:26.083Z,1.38
2022-09-16T06:32:32.071Z,1.48
2022-09-16T06:34:33.994Z,1.17
2022-09-16T06:36:42.681Z,1.70
2022-09-16T06:38:47.978Z,1.23
2022-09-16T06:40:49.812Z,1.45
2022-09-16T06:42:59.499Z,1.20
2022-09-16T06:45:01.909Z,1.10
2022-09-16T06:47:03.846Z,1.40
2022-09-16T06:49:06.638Z,1.38
2022-09-16T06:51:11.856Z,1.40
2022-09-16T06:53:13.667Z,1.67
2022-09-16T06:55:15.505Z,1.05
2022-09-16T06:57:17.455Z,1.30
2022-09-16T06:59:19.229Z,1.20
2022-09-16T07:01:23.691Z,1.02
2022-09-16T07:03:25.682Z,1.67
2022-09-16T07:05:27.381Z,1.23
2022-09-16T07:07:31.928Z,1.30
2022-09-16T07:09:33.756Z,1.20
2022-09-16T07:11:35.755Z,1.10
2022-09-16T07:13:37.829Z,1.40
2022-09-16T07:16:02.397Z,1.20
2022-09-16T07:18:01.201Z,1.33
2022-09-16T07:20:03.213Z,1.42
2022-09-16T07:22:04.950Z,1.20
2022-09-16T07:24:06.888Z,1.60
2022-09-16T07:26:13.059Z,1.17
2022-09-16T07:28:14.909Z,1.80
2022-09-16T07:30:16.601Z,1.50
2022-09-16T07:32:18.305Z,1.95
2022-09-16T07:34:20.098Z,1.42
2022-09-16T07:36:25.027Z,1.50
2022-09-16T07:38:27.934Z,1.25
2022-09-16T07:40:29.916Z,1.60
2022-09-16T07:42:31.925Z,1.20
2022-09-16T07:44:33.625Z,1.40
2022-09-16T07:46:36.843Z,1.27
2022-09-16T07:48:39.744Z,1.92
2022-09-16T07:50:41.446Z,1.77
2022-09-16T07:54:46.249Z,1.52
2022-09-16T07:56:48.090Z,1.50
2022-09-16T07:58:49.905Z,2.80
2022-09-16T08:00:51.673Z,2.63
2022-09-16T08:02:57.301Z,1.50
2022-09-16T08:04:59.151Z,3.40
2022-09-16T08:07:00.941Z,1.13
2022-09-16T08:09:10.586Z,1.58
2022-09-16T08:11:23.161Z,1.50
2022-09-16T08:13:25.884Z,1.58
2022-09-16T08:15:27.597Z,1.65
2022-09-16T08:17:33.350Z,1.77
2022-09-16T08:19:36.534Z,1.67
2022-09-16T08:21:38.579Z,1.35
2022-09-16T08:23:41.138Z,1.70
2022-09-16T08:25:42.904Z,1.67
2022-09-16T08:27:44.914Z,1.85
2022-09-16T08:29:46.728Z,1.40
2022-09-16T08:31:48.751Z,1.55
2022-09-16T08:33:50.469Z,1.65
2022-09-16T08:36:04.005Z,1.48
2022-09-16T08:38:05.773Z,1.50
2022-09-16T08:40:07.871Z,1.38
2022-09-16T08:42:25.742Z,1.40
2022-09-16T08:44:45.769Z,1.23
2022-09-16T08:46:56.964Z,1.20
2022-09-16T08:49:22.143Z,1.13
2022-09-16T08:51:25.192Z,1.30
2022-09-16T08:53:42.208Z,1.20
2022-09-16T08:55:48.782Z,1.15
2022-09-16T08:58:25.040Z,1.52
2022-09-16T09:00:27.002Z,1.25
2022-09-16T09:04:41.930Z,1.38
2022-09-16T09:06:51.194Z,1.48
2022-09-16T09:09:26.279Z,1.45
2022-09-16T09:11:35.771Z,1.52
2022-09-16T09:13:54.170Z,1.23
2022-09-16T09:16:12.254Z,1.35
2022-09-16T09:18:38.378Z,1.00
2022-09-16T09:20:51.725Z,1.48
2022-09-16T09:23:10.160Z,1.13
2022-09-16T09:25:21.624Z,1.27
2022-09-16T09:27:32.766Z,1.25
2022-09-16T09:30:06.100Z,1.20
2022-09-16T09:32:50.418Z,1.27
2022-09-16T09:35:39.719Z,1.13
2022-09-16T09:38:05.972Z,1.17
2022-09-16T09:40:32.527Z,1.35
2022-09-16T09:43:15.072Z,1.25
2022-09-16T09:45:23.170Z,1.20
2022-09-16T09:47:39.993Z,1.00
2022-09-16T09:49:50.370Z,1.10
2022-09-16T09:52:02.490Z,1.20
2022-09-16T09:54:34.029Z,1.10
2022-09-16T09:56:40.647Z,0.98
2022-09-16T09:58:54.343Z,0.85
2022-09-16T10:00:56.300Z,1.27
2022-09-16T10:03:28.295Z,1.20
2022-09-16T10:05:30.478Z,1.10
2022-09-16T10:07:32.469Z,1.85
2022-09-16T10:09:36.346Z,1.10
2022-09-16T10:11:53.728Z,1.20
2022-09-16T10:14:00.935Z,1.17
2022-09-16T10:16:09.348Z,0.98
2022-09-16T10:18:24.429Z,1.20
2022-09-16T10:20:33.434Z,1.60
2022-09-16T10:22:35.751Z,1.45
2022-09-16T10:24:40.676Z,1.17
2022-09-16T10:26:42.597Z,1.25
2022-09-16T10:29:00.822Z,1.42
2022-09-16T10:31:02.915Z,1.05
2022-09-16T10:33:07.362Z,0.98
2022-09-16T10:35:10.043Z,1.50
2022-09-16T10:37:11.968Z,1.20
2022-09-16T10:39:25.999Z,1.20
2022-09-16T10:43:38.233Z,1.45
2022-09-16T10:45:47.743Z,1.10
2022-09-16T10:47:53.076Z,1.30
2022-09-16T10:49:58.361Z,1.63
2022-09-16T10:52:21.688Z,1.02
2022-09-16T10:54:28.490Z,1.35
2022-09-16T10:56:33.673Z,1.20
2022-09-16T10:58:35.625Z,1.20
2022-09-16T11:01:24.564Z,0.95
2022-09-16T11:03:48.019Z,1.50
2022-09-16T11:06:14.812Z,1.90
2022-09-16T11:08:37.912Z,1.40
2022-09-16T11:11:03.425Z,1.40
2022-09-16T11:13:28.215Z,1.40
2022-09-16T11:15:55.172Z,1.30
2022-09-16T11:18:18.541Z,1.38
2022-09-16T11:20:52.509Z,1.70
2022-09-16T11:23:01.969Z,1.50
2022-09-16T11:27:44.694Z,0.95
2022-09-16T11:29:57.677Z,1.40
2022-09-16T11:32:17.532Z,1.50
2022-09-16T11:34:56.825Z,1.55
2022-09-16T11:37:28.183Z,1.60
2022-09-16T11:39:45.259Z,1.70
2022-09-16T11:42:14.432Z,1.50
2022-09-16T11:44:38.091Z,0.90
2022-09-16T11:46:42.782Z,1.02
2022-09-16T11:49:03.077Z,1.02
2022-09-16T11:51:26.597Z,0.68
2022-09-16T11:54:03.274Z,1.17
2022-09-16T11:56:20.518Z,1.00
2022-09-16T11:58:26.886Z,1.10
2022-09-16T12:00:32.598Z,1.10
2022-09-16T12:02:40.971Z,1.08
2022-09-16T12:04:52.495Z,1.20
2022-09-16T12:07:12.505Z,1.10
2022-09-16T12:09:19.735Z,1.02
2022-09-16T12:11:35.330Z,1.30
2022-09-16T12:13:42.536Z,1.13
2022-09-16T12:15:57.062Z,1.40
2022-09-16T12:18:07.326Z,1.10
2022-09-16T12:20:17.197Z,0.98
2022-09-16T12:22:39.994Z,1.10
2022-09-16T12:24:55.489Z,1.08
2022-09-16T12:27:09.251Z,1.10
2022-09-16T12:29:28.326Z,1.10
2022-09-16T12:31:39.127Z,1.10
2022-09-16T12:33:50.393Z,1.20
2022-09-16T12:36:00.101Z,1.00
2022-09-16T12:38:02.387Z,1.30
2022-09-16T12:40:06.640Z,0.93
2022-09-16T12:42:44.430Z,0.95
2022-09-16T12:45:08.042Z,1.00
2022-09-16T12:47:24.868Z,1.20
2022-09-16T12:49:41.681Z,1.10
2022-09-16T12:52:28.227Z,1.10
2022-09-16T12:55:07.185Z,0.90
2022-09-16T12:57:17.523Z,0.80
2022-09-16T12:59:22.339Z,0.93
2022-09-16T13:01:43.569Z,0.80
2022-09-16T13:04:10.812Z,0.90
2022-09-16T13:06:28.673Z,1.00
2022-09-16T13:08:32.774Z,1.27
2022-09-16T13:10:54.968Z,0.95
2022-09-16T13:13:02.219Z,0.93
2022-09-16T13:15:06.069Z,0.95
2022-09-16T13:17:11.210Z,0.85
2022-09-16T13:19:31.221Z,0.98
2022-09-16T13:21:43.269Z,1.15
2022-09-16T13:23:49.638Z,1.30
2022-09-16T13:25:58.543Z,0.75
2022-09-16T13:28:23.167Z,0.90
2022-09-16T13:30:38.657Z,1.08
2022-09-16T13:32:45.059Z,1.02
2022-09-16T13:34:46.876Z,1.10
2022-09-16T13:36:48.793Z,0.80
2022-09-16T13:38:53.125Z,1.20
2022-09-16T13:40:57.826Z,1.00
2022-09-16T13:43:08.726Z,0.95
2022-09-16T13:45:35.409Z,0.70
2022-09-16T13:47:37.317Z,0.88
2022-09-16T13:49:47.353Z,0.85
2022-09-16T13:51:50.516Z,0.88
2022-09-16T13:53:53.415Z,0.82
2022-09-16T13:56:08.529Z,1.00
2022-09-16T13:58:26.472Z,1.05
2022-09-16T14:00:36.005Z,0.85
2022-09-16T14:03:06.139Z,0.93
2022-09-16T14:05:45.189Z,1.30
2022-09-16T14:07:53.004Z,1.10
2022-09-16T14:10:10.140Z,0.80
2022-09-16T14:12:45.534Z,0.90
2022-09-16T14:14:48.196Z,0.82
2022-09-16T14:16:50.298Z,0.90
2022-09-16T14:19:02.071Z,0.93
2022-09-16T14:21:15.785Z,0.90
2022-09-16T14:23:19.228Z,0.95
2022-09-16T14:25:37.182Z,1.17
2022-09-16T14:27:38.933Z,1.20
2022-09-16T14:29:40.657Z,1.20
2022-09-16T14:31:42.887Z,0.93
2022-09-16T14:33:58.128Z,1.02
2022-09-16T14:36:01.701Z,1.10
2022-09-16T14:38:14.146Z,0.98
2022-09-16T14:40:26.747Z,1.23
2022-09-16T14:42:29.651Z,1.80
2022-09-16T14:44:43.791Z,0.95
2022-09-16T14:46:49.845Z,1.00
2022-09-16T14:48:51.642Z,0.82
2022-09-16T14:50:53.451Z,0.70
2022-09-16T14:53:02.743Z,0.70
2022-09-16T14:55:31.079Z,0.68
2022-09-16T14:57:33.045Z,0.70
2022-09-16T14:59:40.601Z,0.70
2022-09-16T15:01:42.781Z,0.90
2022-09-16T15:03:47.308Z,0.85
2022-09-16T15:05:49.874Z,0.75
2022-09-16T15:08:12.723Z,0.77
2022-09-16T15:10:30.291Z,0.73
2022-09-16T15:12:48.432Z,0.80
2022-09-16T15:14:50.281Z,0.90
2022-09-16T15:16:57.418Z,0.90
2022-09-16T15:19:06.040Z,1.02
2022-09-16T15:21:29.924Z,0.70
2022-09-16T15:23:33.505Z,0.95
2022-09-16T15:25:37.392Z,1.20
2022-09-16T15:27:39.154Z,0.88
2022-09-16T15:29:49.293Z,0.70
2022-09-16T15:31:51.874Z,0.80
2022-09-16T15:33:54.143Z,0.85
2022-09-16T15:35:56.091Z,0.80
2022-09-16T15:37:57.839Z,0.80
2022-09-16T15:40:18.691Z,0.75
2022-09-16T15:42:22.314Z,0.80
2022-09-16T15:44:28.163Z,1.08
2022-09-16T15:46:29.990Z,0.77
2022-09-16T15:48:42.824Z,0.93
2022-09-16T15:50:51.669Z,1.42
2022-09-16T15:53:02.739Z,1.20
2022-09-16T15:55:06.423Z,0.80
2022-09-16T15:59:32.755Z,0.68
2022-09-16T16:01:44.342Z,1.05
2022-09-16T16:04:00.672Z,1.13
2022-09-16T16:06:02.938Z,1.13
2022-09-16T16:08:09.083Z,1.00
2022-09-16T16:10:20.836Z,0.93
2022-09-16T16:12:22.918Z,1.13
2022-09-16T16:14:28.092Z,0.90
2022-09-16T16:16:29.859Z,1.00
2022-09-16T16:18:36.161Z,1.10
2022-09-16T16:20:38.197Z,1.00
2022-09-16T16:22:40.029Z,1.08
2022-09-16T16:24:42.148Z,1.00
2022-09-16T16:26:44.166Z,1.00
2022-09-16T16:28:46.101Z,0.90
2022-09-16T16:30:48.273Z,1.20
2022-09-16T16:32:50.342Z,1.13
2022-09-16T16:34:52.081Z,1.10
2022-09-16T16:36:53.797Z,1.00
2022-09-16T16:38:55.885Z,1.13
2022-09-16T16:40:57.948Z,1.25
2022-09-16T16:42:59.625Z,1.10
2022-09-16T16:45:01.563Z,1.20
2022-09-16T16:47:03.699Z,1.50
2022-09-16T16:49:05.375Z,1.73
2022-09-16T16:51:10.109Z,2.90
2022-09-16T16:53:11.919Z,4.63
2022-09-16T16:55:13.635Z,3.53
2022-09-16T16:57:15.506Z,9.20
2022-09-16T16:59:18.137Z,7.07
2022-09-16T17:01:20.401Z,5.85
2022-09-16T17:03:22.267Z,4.20
2022-09-16T17:05:24.023Z,3.53
2022-09-16T17:07:27.304Z,2.80
2022-09-16T17:09:29.822Z,2.33
2022-09-16T17:11:31.849Z,1.73
2022-09-16T17:13:34.228Z,1.45
2022-09-16T17:15:36.086Z,1.48
2022-09-16T17:17:37.926Z,1.35
2022-09-16T17:19:39.707Z,1.38
2022-09-16T17:21:41.489Z,1.75
2022-09-16T17:23:43.289Z,1.80
2022-09-16T17:25:49.920Z,2.00
2022-09-16T17:27:51.787Z,2.20
2022-09-16T17:29:53.979Z,2.70
2022-09-16T17:31:55.706Z,2.60
2022-09-16T17:33:59.855Z,2.38
2022-09-16T17:36:06.551Z,2.60
2022-09-16T17:38:08.430Z,2.00
2022-09-16T17:40:10.774Z,1.92
2022-09-16T17:42:12.560Z,1.70
2022-09-16T17:44:14.939Z,2.00
2022-09-16T17:46:18.066Z,2.20
2022-09-16T17:48:21.166Z,2.20
2022-09-16T17:50:23.190Z,2.95
2022-09-16T17:52:25.675Z,2.42
2022-09-16T17:54:27.653Z,2.28
2022-09-16T17:56:29.788Z,2.15
2022-09-16T17:58:32.421Z,1.90
2022-09-16T18:00:34.198Z,2.53
2022-09-16T18:02:36.201Z,2.70
2022-09-16T18:04:38.161Z,2.58
2022-09-16T18:06:45.131Z,51.67
2022-09-16T18:08:47.792Z,49.95
2022-09-16T18:10:53.501Z,11.63
2022-09-16T18:12:55.638Z,2.85
2022-09-16T18:14:57.337Z,11.82
2022-09-16T18:16:59.604Z,7.63
2022-09-16T18:19:02.561Z,38.17
2022-09-16T18:21:06.249Z,42.13
2022-09-16T18:25:09.853Z,41.60
2022-09-16T18:27:11.547Z,38.15
2022-09-16T18:29:14.026Z,40.42
2022-09-16T18:31:19.133Z,33.25
2022-09-16T18:33:20.862Z,18.67
2022-09-16T18:35:22.676Z,10.95
2022-09-16T18:37:24.467Z,27.35
2022-09-16T18:39:26.146Z,29.15
2022-09-16T18:41:35.246Z,21.30
2022-09-16T18:43:38.724Z,13.13
2022-09-16T18:45:41.607Z,10.02
2022-09-16T18:47:43.482Z,10.25
2022-09-16T18:49:45.245Z,7.18
2022-09-16T18:51:51.744Z,7.13
2022-09-16T18:54:02.183Z,12.77
2022-09-16T18:56:04.291Z,8.70
2022-09-16T18:58:05.983Z,9.98
2022-09-16T19:00:08.395Z,17.60
2022-09-16T19:02:11.980Z,18.33
2022-09-16T19:06:15.379Z,12.82
2022-09-16T19:08:17.222Z,25.00
2022-09-16T19:10:19.290Z,14.40
2022-09-16T19:12:21.110Z,12.65
2022-09-16T19:14:23.252Z,10.65
2022-09-16T19:16:25.023Z,8.05
2022-09-16T19:18:27.427Z,6.38
2022-09-16T19:20:29.139Z,7.97
2022-09-16T19:22:30.853Z,6.07
2022-09-16T19:24:33.164Z,9.38
2022-09-16T19:26:38.746Z,12.88
2022-09-16T19:28:40.536Z,10.68
2022-09-16T19:30:42.412Z,9.07
2022-09-16T19:32:44.166Z,5.93
2022-09-16T19:34:45.911Z,8.10
2022-09-16T19:36:47.692Z,5.63
2022-09-16T19:38:51.175Z,6.57
2022-09-16T19:41:00.787Z,7.82
2022-09-16T19:43:02.555Z,4.82
2022-09-16T19:45:04.693Z,4.47
2022-09-16T19:47:06.471Z,4.05
2022-09-16T19:49:09.114Z,4.43
2022-09-16T19:51:13.286Z,4.10
2022-09-16T19:53:14.992Z,4.03
2022-09-16T19:55:16.917Z,2.78
2022-09-16T19:57:18.887Z,3.78
2022-09-16T19:59:20.905Z,3.42
2022-09-16T20:01:28.103Z,2.97
2022-09-16T20:03:31.043Z,3.50
2022-09-16T20:05:32.733Z,3.08
2022-09-16T20:07:34.481Z,3.90
2022-09-16T20:09:36.365Z,3.53
2022-09-16T20:11:43.548Z,3.67
2022-09-16T20:13:49.721Z,3.60
2022-09-16T20:15:51.522Z,3.22
2022-09-16T20:17:53.223Z,3.60
2022-09-16T20:19:55.065Z,3.15
2022-09-16T20:21:57.373Z,3.17
2022-09-16T20:23:59.081Z,2.95
2022-09-16T20:26:03.029Z,3.25
2022-09-16T20:28:04.944Z,3.35
2022-09-16T20:30:07.012Z,2.80
2022-09-16T20:32:08.848Z,2.90
2022-09-16T20:34:13.673Z,2.63
2022-09-16T20:36:17.741Z,2.63
2022-09-16T20:38:19.695Z,2.70
2022-09-16T20:40:21.554Z,2.83
2022-09-16T20:42:23.374Z,3.00
2022-09-16T20:44:25.168Z,2.40
2022-09-16T20:46:32.214Z,2.85
2022-09-16T20:48:34.796Z,2.97
2022-09-16T20:50:38.102Z,3.00
2022-09-16T20:52:39.893Z,2.38
2022-09-16T20:54:41.574Z,2.67
2022-09-16T20:56:45.994Z,3.00
2022-09-16T20:58:47.899Z,2.35
2022-09-16T21:00:49.628Z,2.42
2022-09-16T21:02:53.431Z,2.60
2022-09-16T21:04:55.258Z,2.80
2022-09-16T21:06:57.019Z,2.70
2022-09-16T21:09:00.612Z,2.78
2022-09-16T21:11:06.815Z,2.70
2022-09-16T21:13:09.594Z,2.70
2022-09-16T21:15:11.564Z,2.70
2022-09-16T21:17:13.380Z,2.83
2022-09-16T21:19:15.568Z,2.70
2022-09-16T21:21:19.158Z,2.72
2022-09-16T21:23:21.010Z,2.97
2022-09-16T21:25:25.047Z,3.20
2022-09-16T21:27:26.860Z,2.97
2022-09-16T21:29:28.686Z,3.25
2022-09-16T21:31:32.816Z,3.08
2022-09-16T21:33:36.787Z,2.95
2022-09-16T21:35:38.624Z,3.20
2022-09-16T21:37:40.319Z,3.10
2022-09-16T21:39:42.232Z,3.72
2022-09-16T21:41:45.659Z,3.08
2022-09-16T21:43:49.662Z,3.28
2022-09-16T21:45:51.806Z,3.20
2022-09-16T21:47:53.612Z,3.90
2022-09-16T21:49:55.332Z,3.10
2022-09-16T21:51:58.705Z,2.90
2022-09-16T21:54:04.756Z,3.22
2022-09-16T21:56:08.374Z,3.00
2022-09-16T21:58:10.522Z,3.65
2022-09-16T22:00:12.891Z,3.08
2022-09-16T22:02:14.601Z,3.80
2022-09-16T22:04:19.305Z,3.53
2022-09-16T22:06:21.785Z,3.17
2022-09-16T22:08:23.468Z,3.35
2022-09-16T22:10:25.175Z,3.47
2022-09-16T22:12:26.928Z,3.42
2022-09-16T22:14:28.659Z,3.70
2022-09-16T22:16:33.511Z,3.47
2022-09-16T22:18:36.472Z,3.63
2022-09-16T22:20:38.142Z,3.30
2022-09-16T22:22:40.044Z,3.60
2022-09-16T22:24:41.876Z,3.60
2022-09-16T22:26:43.725Z,3.90
2022-09-16T22:28:45.693Z,3.22
2022-09-16T22:30:47.440Z,3.35
2022-09-16T22:32:49.113Z,3.17
2022-09-16T22:34:51.050Z,3.50
2022-09-16T22:36:52.891Z,3.75
2022-09-16T22:39:04.582Z,3.35
2022-09-16T22:41:08.930Z,3.20
2022-09-16T22:43:10.704Z,3.50
2022-09-16T22:45:12.490Z,3.53
2022-09-16T22:47:14.286Z,3.55
2022-09-16T22:49:16.129Z,3.30
2022-09-16T22:51:18.986Z,3.10
2022-09-16T22:53:20.838Z,2.90
2022-09-16T22:55:22.724Z,3.25
2022-09-16T22:57:24.815Z,3.35
2022-09-16T22:59:26.645Z,3.20
2022-09-16T23:01:31.249Z,3.10
2022-09-16T23:03:33.470Z,3.58
2022-09-16T23:05:35.401Z,3.33
2022-09-16T23:07:37.168Z,3.63
2022-09-16T23:09:38.887Z,3.47
2022-09-16T23:11:41.406Z,3.10
2022-09-16T23:13:43.860Z,3.85
2022-09-16T23:15:45.644Z,3.30
2022-09-16T23:17:47.684Z,3.08
2022-09-16T23:19:49.787Z,3.28
2022-09-16T23:21:51.509Z,3.72
2022-09-16T23:23:56.119Z,3.50
2022-09-16T23:26:02.450Z,3.78
2022-09-16T23:28:04.144Z,3.53
2022-09-16T23:30:06.652Z,3.35
2022-09-16T23:32:08.594Z,3.92
2022-09-16T23:34:28.436Z,3.22
2022-09-16T23:36:30.739Z,3.50
2022-09-16T23:38:34.730Z,3.60
2022-09-16T23:40:37.198Z,3.30
2022-09-16T23:42:38.965Z,3.28
2022-09-16T23:44:40.657Z,3.38
2022-09-16T23:46:43.253Z,3.95
2022-09-16T23:48:45.876Z,3.25
2022-09-16T23:50:47.798Z,3.30
2022-09-16T23:52:49.503Z,3.58
2022-09-16T23:54:51.463Z,3.25
2022-09-16T23:56:53.411Z,3.20
2022-09-16T23:58:58.514Z,3.58
